Terminal Aerodrome Forecast
Issued by NWS Green Bay, WI

Home | Current Version | Previous Version | Graphics & Text | Print | Product List | Glossary On
Versions: 1 2 3 4 5 6 7 8 9 10 11 12 13 14 15 16 17 18 19 20 21 22 23 24 25 26 27 28 29 30 31 32 33 34 35 36 37 38 39 40 41 42 43 44 45
000
FTUS43 KGRB 280520
TAFGRB
TAF
KGRB 280520Z 2806/2906 22003KT P6SM SCT100
      TEMPO 2808/2812 2SM BR SCT006
     FM281500 19007KT P6SM SCT080
     FM281900 18010G16KT P6SM SCT050
     FM290100 16005KT P6SM SKC=

USA.gov is the U.S. government's official web portal to all federal, state and local government web resources and services.